sensor_id;sensor_type;location;lat;lon;timestamp;P1;durP1;ratioP1;P2;durP2;ratioP2
13061;SDS011;6597;52.218;9.882;2023-05-16T00:01:05;15.90;;;7.40;;
13061;SDS011;6597;52.218;9.882;2023-05-16T00:03:32;12.33;;;5.60;;
13061;SDS011;6597;52.218;9.882;2023-05-16T00:05:58;11.30;;;6.40;;
13061;SDS011;6597;52.218;9.882;2023-05-16T00:08:27;12.90;;;6.90;;
13061;SDS011;6597;52.218;9.882;2023-05-16T00:10:54;11.57;;;5.90;;
13061;SDS011;6597;52.218;9.882;2023-05-16T00:13:20;13.70;;;6.37;;
13061;SDS011;6597;52.218;9.882;2023-05-16T00:15:50;12.50;;;6.13;;
13061;SDS011;6597;52.218;9.882;2023-05-16T00:18:17;11.73;;;6.07;;
13061;SDS011;6597;52.218;9.882;2023-05-16T00:20:43;9.83;;;5.57;;
13061;SDS011;6597;52.218;9.882;2023-05-16T00:23:10;8.90;;;5.20;;
13061;SDS011;6597;52.218;9.882;2023-05-16T00:25:38;12.30;;;5.53;;
13061;SDS011;6597;52.218;9.882;2023-05-16T00:28:05;12.80;;;6.10;;
13061;SDS011;6597;52.218;9.882;2023-05-16T00:30:32;10.17;;;5.50;;
13061;SDS011;6597;52.218;9.882;2023-05-16T00:32:58;10.10;;;5.47;;
13061;SDS011;6597;52.218;9.882;2023-05-16T00:35:26;10.90;;;4.63;;
13061;SDS011;6597;52.218;9.882;2023-05-16T00:37:52;6.83;;;4.30;;
13061;SDS011;6597;52.218;9.882;2023-05-16T00:40:20;8.27;;;4.73;;
13061;SDS011;6597;52.218;9.882;2023-05-16T00:42:48;7.07;;;4.00;;
13061;SDS011;6597;52.218;9.882;2023-05-16T00:45:14;6.37;;;4.07;;
13061;SDS011;6597;52.218;9.882;2023-05-16T00:47:41;8.47;;;4.60;;
13061;SDS011;6597;52.218;9.882;2023-05-16T00:50:08;8.13;;;4.90;;
13061;SDS011;6597;52.218;9.882;2023-05-16T00:52:35;8.80;;;4.93;;
13061;SDS011;6597;52.218;9.882;2023-05-16T00:55:02;11.07;;;5.43;;
13061;SDS011;6597;52.218;9.882;2023-05-16T00:57:30;10.83;;;5.67;;
13061;SDS011;6597;52.218;9.882;2023-05-16T00:59:58;16.13;;;5.23;;
13061;SDS011;6597;52.218;9.882;2023-05-16T01:02:24;12.03;;;5.70;;
13061;SDS011;6597;52.218;9.882;2023-05-16T01:04:53;8.83;;;4.60;;
13061;SDS011;6597;52.218;9.882;2023-05-16T01:07:21;8.70;;;4.73;;
13061;SDS011;6597;52.218;9.882;2023-05-16T01:09:48;7.93;;;5.20;;
13061;SDS011;6597;52.218;9.882;2023-05-16T01:12:17;8.13;;;5.00;;
13061;SDS011;6597;52.218;9.882;2023-05-16T01:14:54;8.33;;;3.70;;
13061;SDS011;6597;52.218;9.882;2023-05-16T01:17:32;8.37;;;4.27;;
13061;SDS011;6597;52.218;9.882;2023-05-16T01:20:10;9.13;;;4.50;;
13061;SDS011;6597;52.218;9.882;2023-05-16T01:22:51;5.27;;;4.03;;
13061;SDS011;6597;52.218;9.882;2023-05-16T01:25:30;6.50;;;3.90;;
13061;SDS011;6597;52.218;9.882;2023-05-16T01:28:04;6.53;;;3.20;;
13061;SDS011;6597;52.218;9.882;2023-05-16T01:30:34;7.60;;;3.10;;
13061;SDS011;6597;52.218;9.882;2023-05-16T01:33:01;6.53;;;3.60;;
13061;SDS011;6597;52.218;9.882;2023-05-16T01:35:29;9.57;;;3.67;;
13061;SDS011;6597;52.218;9.882;2023-05-16T01:37:57;5.37;;;3.70;;
13061;SDS011;6597;52.218;9.882;2023-05-16T01:40:30;10.70;;;3.87;;
13061;SDS011;6597;52.218;9.882;2023-05-16T01:43:02;7.57;;;4.30;;
13061;SDS011;6597;52.218;9.882;2023-05-16T01:45:39;6.17;;;3.80;;
13061;SDS011;6597;52.218;9.882;2023-05-16T01:48:16;10.13;;;4.23;;
13061;SDS011;6597;52.218;9.882;2023-05-16T01:50:49;6.70;;;4.07;;
13061;SDS011;6597;52.218;9.882;2023-05-16T01:53:20;8.57;;;4.13;;
13061;SDS011;6597;52.218;9.882;2023-05-16T01:55:50;6.73;;;4.30;;
13061;SDS011;6597;52.218;9.882;2023-05-16T01:58:20;7.87;;;4.50;;
13061;SDS011;6597;52.218;9.882;2023-05-16T02:00:51;6.73;;;4.03;;
13061;SDS011;6597;52.218;9.882;2023-05-16T02:03:18;11.40;;;4.30;;
13061;SDS011;6597;52.218;9.882;2023-05-16T02:05:45;7.57;;;4.23;;
13061;SDS011;6597;52.218;9.882;2023-05-16T02:08:12;9.23;;;4.50;;
13061;SDS011;6597;52.218;9.882;2023-05-16T02:10:40;10.43;;;5.23;;
13061;SDS011;6597;52.218;9.882;2023-05-16T02:13:06;9.03;;;4.77;;
13061;SDS011;6597;52.218;9.882;2023-05-16T02:15:34;8.43;;;4.97;;
13061;SDS011;6597;52.218;9.882;2023-05-16T02:18:01;9.63;;;4.97;;
13061;SDS011;6597;52.218;9.882;2023-05-16T02:20:28;14.73;;;5.73;;
13061;SDS011;6597;52.218;9.882;2023-05-16T02:22:54;8.53;;;5.13;;
13061;SDS011;6597;52.218;9.882;2023-05-16T02:25:21;7.03;;;4.80;;
13061;SDS011;6597;52.218;9.882;2023-05-16T02:27:48;10.60;;;5.70;;
13061;SDS011;6597;52.218;9.882;2023-05-16T02:30:15;11.90;;;4.73;;
13061;SDS011;6597;52.218;9.882;2023-05-16T02:32:43;12.97;;;5.30;;
13061;SDS011;6597;52.218;9.882;2023-05-16T02:35:10;8.10;;;4.67;;
13061;SDS011;6597;52.218;9.882;2023-05-16T02:37:36;9.77;;;4.63;;
13061;SDS011;6597;52.218;9.882;2023-05-16T02:40:03;8.30;;;4.20;;
13061;SDS011;6597;52.218;9.882;2023-05-16T02:42:31;10.13;;;4.33;;
13061;SDS011;6597;52.218;9.882;2023-05-16T02:44:58;6.40;;;3.77;;
13061;SDS011;6597;52.218;9.882;2023-05-16T02:47:24;9.93;;;4.20;;
13061;SDS011;6597;52.218;9.882;2023-05-16T02:49:52;8.43;;;3.67;;
13061;SDS011;6597;52.218;9.882;2023-05-16T02:52:19;4.77;;;3.10;;
13061;SDS011;6597;52.218;9.882;2023-05-16T02:54:46;5.50;;;3.00;;
13061;SDS011;6597;52.218;9.882;2023-05-16T02:57:12;5.67;;;3.37;;
13061;SDS011;6597;52.218;9.882;2023-05-16T02:59:39;4.13;;;3.13;;
13061;SDS011;6597;52.218;9.882;2023-05-16T03:02:06;4.63;;;2.90;;
13061;SDS011;6597;52.218;9.882;2023-05-16T03:04:32;10.13;;;3.13;;
13061;SDS011;6597;52.218;9.882;2023-05-16T03:07:00;5.77;;;2.60;;
13061;SDS011;6597;52.218;9.882;2023-05-16T03:09:27;5.13;;;2.90;;
13061;SDS011;6597;52.218;9.882;2023-05-16T03:11:53;2.63;;;1.87;;
13061;SDS011;6597;52.218;9.882;2023-05-16T03:14:20;3.80;;;2.33;;
13061;SDS011;6597;52.218;9.882;2023-05-16T03:16:47;3.37;;;2.40;;
13061;SDS011;6597;52.218;9.882;2023-05-16T03:19:13;5.00;;;2.50;;
13061;SDS011;6597;52.218;9.882;2023-05-16T03:21:40;5.53;;;2.33;;
13061;SDS011;6597;52.218;9.882;2023-05-16T03:24:08;4.80;;;2.17;;
13061;SDS011;6597;52.218;9.882;2023-05-16T03:26:34;3.87;;;1.90;;
13061;SDS011;6597;52.218;9.882;2023-05-16T03:29:01;4.70;;;1.93;;
13061;SDS011;6597;52.218;9.882;2023-05-16T03:31:27;4.37;;;2.10;;
13061;SDS011;6597;52.218;9.882;2023-05-16T03:33:55;4.17;;;1.70;;
13061;SDS011;6597;52.218;9.882;2023-05-16T03:36:22;7.33;;;2.17;;
13061;SDS011;6597;52.218;9.882;2023-05-16T03:38:49;4.50;;;1.70;;
13061;SDS011;6597;52.218;9.882;2023-05-16T03:41:17;6.77;;;1.90;;
13061;SDS011;6597;52.218;9.882;2023-05-16T03:43:44;2.80;;;1.50;;
13061;SDS011;6597;52.218;9.882;2023-05-16T03:46:10;3.80;;;1.60;;
13061;SDS011;6597;52.218;9.882;2023-05-16T03:48:37;6.23;;;2.53;;
13061;SDS011;6597;52.218;9.882;2023-05-16T03:51:03;4.07;;;2.10;;
13061;SDS011;6597;52.218;9.882;2023-05-16T03:53:30;4.30;;;2.00;;
13061;SDS011;6597;52.218;9.882;2023-05-16T03:55:57;10.17;;;2.47;;
13061;SDS011;6597;52.218;9.882;2023-05-16T03:58:25;10.77;;;2.40;;
13061;SDS011;6597;52.218;9.882;2023-05-16T04:00:52;6.60;;;1.67;;
13061;SDS011;6597;52.218;9.882;2023-05-16T04:03:19;14.00;;;2.87;;
13061;SDS011;6597;52.218;9.882;2023-05-16T04:05:52;8.53;;;2.50;;
13061;SDS011;6597;52.218;9.882;2023-05-16T04:08:18;7.53;;;2.17;;
13061;SDS011;6597;52.218;9.882;2023-05-16T04:10:45;11.53;;;2.53;;
13061;SDS011;6597;52.218;9.882;2023-05-16T04:13:12;7.70;;;2.10;;
13061;SDS011;6597;52.218;9.882;2023-05-16T04:15:40;10.53;;;2.27;;
13061;SDS011;6597;52.218;9.882;2023-05-16T04:18:07;4.77;;;1.73;;
13061;SDS011;6597;52.218;9.882;2023-05-16T04:20:34;3.77;;;1.77;;
13061;SDS011;6597;52.218;9.882;2023-05-16T04:23:01;13.60;;;2.17;;
13061;SDS011;6597;52.218;9.882;2023-05-16T04:25:27;9.73;;;1.50;;
13061;SDS011;6597;52.218;9.882;2023-05-16T04:27:55;13.03;;;2.87;;
13061;SDS011;6597;52.218;9.882;2023-05-16T04:30:21;5.10;;;1.93;;
13061;SDS011;6597;52.218;9.882;2023-05-16T04:32:49;6.53;;;2.40;;
13061;SDS011;6597;52.218;9.882;2023-05-16T04:35:16;5.70;;;2.33;;
13061;SDS011;6597;52.218;9.882;2023-05-16T04:37:42;10.10;;;2.93;;
13061;SDS011;6597;52.218;9.882;2023-05-16T04:40:09;6.30;;;2.40;;
13061;SDS011;6597;52.218;9.882;2023-05-16T04:42:37;4.47;;;2.20;;
13061;SDS011;6597;52.218;9.882;2023-05-16T04:45:04;6.13;;;2.47;;
13061;SDS011;6597;52.218;9.882;2023-05-16T04:47:35;4.60;;;2.23;;
13061;SDS011;6597;52.218;9.882;2023-05-16T04:50:03;11.50;;;2.30;;
13061;SDS011;6597;52.218;9.882;2023-05-16T04:52:30;4.03;;;1.93;;
13061;SDS011;6597;52.218;9.882;2023-05-16T04:54:57;9.10;;;2.60;;
13061;SDS011;6597;52.218;9.882;2023-05-16T04:57:24;10.67;;;2.33;;
13061;SDS011;6597;52.218;9.882;2023-05-16T04:59:51;7.27;;;2.40;;
13061;SDS011;6597;52.218;9.882;2023-05-16T05:02:18;4.30;;;1.50;;
13061;SDS011;6597;52.218;9.882;2023-05-16T05:04:44;8.07;;;2.30;;
13061;SDS011;6597;52.218;9.882;2023-05-16T05:07:12;6.40;;;1.93;;
13061;SDS011;6597;52.218;9.882;2023-05-16T05:09:39;10.80;;;2.67;;
13061;SDS011;6597;52.218;9.882;2023-05-16T05:12:08;4.90;;;2.03;;
13061;SDS011;6597;52.218;9.882;2023-05-16T05:14:35;11.03;;;2.20;;
13061;SDS011;6597;52.218;9.882;2023-05-16T05:17:01;8.13;;;2.43;;
13061;SDS011;6597;52.218;9.882;2023-05-16T05:19:28;7.13;;;2.00;;
13061;SDS011;6597;52.218;9.882;2023-05-16T05:21:54;7.90;;;2.70;;
13061;SDS011;6597;52.218;9.882;2023-05-16T05:24:23;7.90;;;1.77;;
13061;SDS011;6597;52.218;9.882;2023-05-16T05:26:49;10.20;;;2.50;;
13061;SDS011;6597;52.218;9.882;2023-05-16T05:29:16;9.73;;;2.47;;
13061;SDS011;6597;52.218;9.882;2023-05-16T05:31:42;9.07;;;2.00;;
13061;SDS011;6597;52.218;9.882;2023-05-16T05:34:09;10.40;;;2.10;;
13061;SDS011;6597;52.218;9.882;2023-05-16T05:36:35;12.43;;;2.70;;
13061;SDS011;6597;52.218;9.882;2023-05-16T05:39:02;9.50;;;2.40;;
13061;SDS011;6597;52.218;9.882;2023-05-16T05:41:30;6.93;;;2.23;;
13061;SDS011;6597;52.218;9.882;2023-05-16T05:43:56;8.53;;;2.07;;
13061;SDS011;6597;52.218;9.882;2023-05-16T05:46:23;14.40;;;1.97;;
13061;SDS011;6597;52.218;9.882;2023-05-16T05:48:50;9.93;;;2.70;;
13061;SDS011;6597;52.218;9.882;2023-05-16T05:51:16;14.03;;;2.50;;
13061;SDS011;6597;52.218;9.882;2023-05-16T05:53:43;9.47;;;1.83;;
13061;SDS011;6597;52.218;9.882;2023-05-16T05:56:10;6.50;;;1.90;;
13061;SDS011;6597;52.218;9.882;2023-05-16T05:58:38;7.80;;;2.00;;
13061;SDS011;6597;52.218;9.882;2023-05-16T06:01:06;7.37;;;1.90;;
13061;SDS011;6597;52.218;9.882;2023-05-16T06:03:32;12.03;;;2.27;;
13061;SDS011;6597;52.218;9.882;2023-05-16T06:05:59;12.70;;;2.20;;
13061;SDS011;6597;52.218;9.882;2023-05-16T06:08:25;9.17;;;1.97;;
13061;SDS011;6597;52.218;9.882;2023-05-16T06:10:52;5.30;;;1.77;;
13061;SDS011;6597;52.218;9.882;2023-05-16T06:13:18;7.70;;;1.77;;
13061;SDS011;6597;52.218;9.882;2023-05-16T06:15:49;13.77;;;2.30;;
13061;SDS011;6597;52.218;9.882;2023-05-16T06:18:16;13.27;;;2.73;;
13061;SDS011;6597;52.218;9.882;2023-05-16T06:20:43;13.67;;;1.80;;
13061;SDS011;6597;52.218;9.882;2023-05-16T06:23:09;9.03;;;1.97;;
13061;SDS011;6597;52.218;9.882;2023-05-16T06:25:36;14.67;;;3.30;;
13061;SDS011;6597;52.218;9.882;2023-05-16T06:28:02;13.33;;;2.20;;
13061;SDS011;6597;52.218;9.882;2023-05-16T06:30:29;9.57;;;1.97;;
13061;SDS011;6597;52.218;9.882;2023-05-16T06:32:57;6.63;;;2.00;;
13061;SDS011;6597;52.218;9.882;2023-05-16T06:35:23;9.87;;;1.77;;
13061;SDS011;6597;52.218;9.882;2023-05-16T06:37:50;17.73;;;2.47;;
13061;SDS011;6597;52.218;9.882;2023-05-16T06:40:16;5.80;;;1.80;;
13061;SDS011;6597;52.218;9.882;2023-05-16T06:42:43;7.43;;;2.07;;
13061;SDS011;6597;52.218;9.882;2023-05-16T06:45:10;13.27;;;2.07;;
13061;SDS011;6597;52.218;9.882;2023-05-16T06:47:37;10.10;;;1.90;;
13061;SDS011;6597;52.218;9.882;2023-05-16T06:50:05;12.27;;;2.30;;
13061;SDS011;6597;52.218;9.882;2023-05-16T06:52:34;9.47;;;1.63;;
13061;SDS011;6597;52.218;9.882;2023-05-16T06:55:00;7.07;;;2.50;;
13061;SDS011;6597;52.218;9.882;2023-05-16T06:57:27;12.43;;;2.30;;
13061;SDS011;6597;52.218;9.882;2023-05-16T06:59:54;9.50;;;2.40;;
13061;SDS011;6597;52.218;9.882;2023-05-16T07:02:20;8.10;;;2.10;;
13061;SDS011;6597;52.218;9.882;2023-05-16T07:04:47;7.63;;;1.70;;
13061;SDS011;6597;52.218;9.882;2023-05-16T07:07:15;14.30;;;2.90;;
13061;SDS011;6597;52.218;9.882;2023-05-16T07:09:41;11.97;;;2.13;;
13061;SDS011;6597;52.218;9.882;2023-05-16T07:12:08;6.50;;;1.70;;
13061;SDS011;6597;52.218;9.882;2023-05-16T07:14:34;7.57;;;2.23;;
13061;SDS011;6597;52.218;9.882;2023-05-16T07:17:01;2.73;;;1.50;;
13061;SDS011;6597;52.218;9.882;2023-05-16T07:19:28;3.77;;;1.37;;
13061;SDS011;6597;52.218;9.882;2023-05-16T07:21:55;7.73;;;2.17;;
13061;SDS011;6597;52.218;9.882;2023-05-16T07:24:23;10.53;;;2.10;;
13061;SDS011;6597;52.218;9.882;2023-05-16T07:26:49;7.90;;;2.10;;
13061;SDS011;6597;52.218;9.882;2023-05-16T07:29:16;8.53;;;2.50;;
13061;SDS011;6597;52.218;9.882;2023-05-16T07:31:42;7.13;;;2.10;;
13061;SDS011;6597;52.218;9.882;2023-05-16T07:34:09;7.70;;;2.33;;
13061;SDS011;6597;52.218;9.882;2023-05-16T07:36:36;10.43;;;1.90;;
13061;SDS011;6597;52.218;9.882;2023-05-16T07:39:02;5.03;;;1.73;;
13061;SDS011;6597;52.218;9.882;2023-05-16T07:41:30;4.63;;;1.70;;
13061;SDS011;6597;52.218;9.882;2023-05-16T07:43:58;9.10;;;1.90;;
13061;SDS011;6597;52.218;9.882;2023-05-16T07:46:25;5.40;;;1.67;;
13061;SDS011;6597;52.218;9.882;2023-05-16T07:48:51;5.37;;;1.87;;
13061;SDS011;6597;52.218;9.882;2023-05-16T07:51:18;4.93;;;1.47;;
13061;SDS011;6597;52.218;9.882;2023-05-16T07:53:44;8.60;;;2.10;;
13061;SDS011;6597;52.218;9.882;2023-05-16T07:56:11;7.10;;;1.53;;
13061;SDS011;6597;52.218;9.882;2023-05-16T07:58:39;7.63;;;1.83;;
13061;SDS011;6597;52.218;9.882;2023-05-16T08:01:06;13.83;;;2.40;;
13061;SDS011;6597;52.218;9.882;2023-05-16T08:03:33;9.03;;;2.03;;
13061;SDS011;6597;52.218;9.882;2023-05-16T08:06:00;8.60;;;1.77;;
13061;SDS011;6597;52.218;9.882;2023-05-16T08:08:26;12.13;;;2.10;;
13061;SDS011;6597;52.218;9.882;2023-05-16T08:10:53;5.70;;;1.60;;
13061;SDS011;6597;52.218;9.882;2023-05-16T08:13:19;10.87;;;2.67;;
13061;SDS011;6597;52.218;9.882;2023-05-16T08:15:47;8.13;;;1.80;;
13061;SDS011;6597;52.218;9.882;2023-05-16T08:18:14;10.03;;;1.70;;
13061;SDS011;6597;52.218;9.882;2023-05-16T08:20:41;9.63;;;1.90;;
13061;SDS011;6597;52.218;9.882;2023-05-16T08:23:08;9.47;;;1.37;;
13061;SDS011;6597;52.218;9.882;2023-05-16T08:25:34;9.90;;;2.37;;
13061;SDS011;6597;52.218;9.882;2023-05-16T08:28:01;10.27;;;2.13;;
13061;SDS011;6597;52.218;9.882;2023-05-16T08:30:27;8.07;;;1.70;;
13061;SDS011;6597;52.218;9.882;2023-05-16T08:32:56;9.77;;;1.93;;
13061;SDS011;6597;52.218;9.882;2023-05-16T08:35:22;13.07;;;2.73;;
13061;SDS011;6597;52.218;9.882;2023-05-16T08:37:49;9.70;;;1.57;;
13061;SDS011;6597;52.218;9.882;2023-05-16T08:40:15;8.63;;;2.03;;
13061;SDS011;6597;52.218;9.882;2023-05-16T08:42:43;14.57;;;2.53;;
13061;SDS011;6597;52.218;9.882;2023-05-16T08:45:10;10.53;;;1.57;;
13061;SDS011;6597;52.218;9.882;2023-05-16T08:47:37;9.60;;;2.37;;
13061;SDS011;6597;52.218;9.882;2023-05-16T08:50:07;4.83;;;1.53;;
13061;SDS011;6597;52.218;9.882;2023-05-16T08:52:35;4.33;;;1.70;;
13061;SDS011;6597;52.218;9.882;2023-05-16T08:55:05;5.83;;;1.73;;
13061;SDS011;6597;52.218;9.882;2023-05-16T08:57:35;3.57;;;1.50;;
13061;SDS011;6597;52.218;9.882;2023-05-16T09:00:03;7.87;;;1.63;;
13061;SDS011;6597;52.218;9.882;2023-05-16T09:02:36;10.97;;;2.17;;
13061;SDS011;6597;52.218;9.882;2023-05-16T09:05:03;3.17;;;1.23;;
13061;SDS011;6597;52.218;9.882;2023-05-16T09:07:34;4.67;;;1.37;;
13061;SDS011;6597;52.218;9.882;2023-05-16T09:10:01;9.03;;;1.90;;
13061;SDS011;6597;52.218;9.882;2023-05-16T09:12:28;5.07;;;1.40;;
13061;SDS011;6597;52.218;9.882;2023-05-16T09:14:54;6.27;;;1.63;;
13061;SDS011;6597;52.218;9.882;2023-05-16T09:17:22;8.53;;;1.70;;
13061;SDS011;6597;52.218;9.882;2023-05-16T09:19:48;8.53;;;1.73;;
13061;SDS011;6597;52.218;9.882;2023-05-16T09:22:18;3.63;;;1.50;;
13061;SDS011;6597;52.218;9.882;2023-05-16T09:24:46;3.30;;;1.40;;
13061;SDS011;6597;52.218;9.882;2023-05-16T09:27:13;6.57;;;1.20;;
13061;SDS011;6597;52.218;9.882;2023-05-16T09:29:40;3.63;;;1.47;;
13061;SDS011;6597;52.218;9.882;2023-05-16T09:32:08;3.00;;;0.93;;
13061;SDS011;6597;52.218;9.882;2023-05-16T09:34:40;3.47;;;1.13;;
13061;SDS011;6597;52.218;9.882;2023-05-16T09:37:09;2.17;;;1.37;;
13061;SDS011;6597;52.218;9.882;2023-05-16T09:39:37;1.80;;;1.27;;
13061;SDS011;6597;52.218;9.882;2023-05-16T09:42:09;3.80;;;1.08;;
13061;SDS011;6597;52.218;9.882;2023-05-16T09:44:36;7.03;;;1.20;;
13061;SDS011;6597;52.218;9.882;2023-05-16T09:47:03;3.13;;;0.80;;
13061;SDS011;6597;52.218;9.882;2023-05-16T09:49:30;3.40;;;1.13;;
13061;SDS011;6597;52.218;9.882;2023-05-16T09:51:58;3.00;;;1.13;;
13061;SDS011;6597;52.218;9.882;2023-05-16T09:54:29;4.50;;;1.33;;
13061;SDS011;6597;52.218;9.882;2023-05-16T09:56:57;3.83;;;1.67;;
13061;SDS011;6597;52.218;9.882;2023-05-16T09:59:25;4.53;;;1.23;;
13061;SDS011;6597;52.218;9.882;2023-05-16T10:01:53;2.60;;;1.17;;
13061;SDS011;6597;52.218;9.882;2023-05-16T10:04:23;0.63;;;0.63;;
13061;SDS011;6597;52.218;9.882;2023-05-16T10:06:49;2.97;;;0.95;;
13061;SDS011;6597;52.218;9.882;2023-05-16T10:09:16;4.93;;;1.10;;
13061;SDS011;6597;52.218;9.882;2023-05-16T10:11:43;6.03;;;1.00;;
13061;SDS011;6597;52.218;9.882;2023-05-16T10:14:11;5.20;;;1.42;;
13061;SDS011;6597;52.218;9.882;2023-05-16T10:16:42;3.13;;;1.15;;
13061;SDS011;6597;52.218;9.882;2023-05-16T10:19:11;5.75;;;1.15;;
13061;SDS011;6597;52.218;9.882;2023-05-16T10:21:39;3.25;;;1.38;;
13061;SDS011;6597;52.218;9.882;2023-05-16T10:24:10;1.43;;;0.87;;
13061;SDS011;6597;52.218;9.882;2023-05-16T10:26:40;4.93;;;1.38;;
13061;SDS011;6597;52.218;9.882;2023-05-16T10:29:07;3.17;;;1.20;;
13061;SDS011;6597;52.218;9.882;2023-05-16T10:31:33;4.00;;;1.30;;
13061;SDS011;6597;52.218;9.882;2023-05-16T10:34:02;2.77;;;1.23;;
13061;SDS011;6597;52.218;9.882;2023-05-16T10:36:29;1.70;;;1.00;;
13061;SDS011;6597;52.218;9.882;2023-05-16T10:38:56;1.70;;;1.10;;
13061;SDS011;6597;52.218;9.882;2023-05-16T10:41:23;2.03;;;0.90;;
13061;SDS011;6597;52.218;9.882;2023-05-16T10:43:56;3.08;;;0.98;;
13061;SDS011;6597;52.218;9.882;2023-05-16T10:46:24;2.22;;;0.90;;
13061;SDS011;6597;52.218;9.882;2023-05-16T10:48:52;2.83;;;1.05;;
13061;SDS011;6597;52.218;9.882;2023-05-16T10:54:03;2.55;;;1.25;;
13061;SDS011;6597;52.218;9.882;2023-05-16T10:56:31;2.28;;;1.08;;
13061;SDS011;6597;52.218;9.882;2023-05-16T10:58:58;3.70;;;1.17;;
13061;SDS011;6597;52.218;9.882;2023-05-16T11:01:25;2.30;;;1.17;;
13061;SDS011;6597;52.218;9.882;2023-05-16T11:04:06;0.73;;;0.60;;
13061;SDS011;6597;52.218;9.882;2023-05-16T11:06:43;2.90;;;1.23;;
13061;SDS011;6597;52.218;9.882;2023-05-16T11:09:17;2.40;;;0.95;;
13061;SDS011;6597;52.218;9.882;2023-05-16T11:11:52;2.30;;;0.93;;
13061;SDS011;6597;52.218;9.882;2023-05-16T11:14:24;2.25;;;0.98;;
13061;SDS011;6597;52.218;9.882;2023-05-16T11:16:58;4.13;;;1.13;;
13061;SDS011;6597;52.218;9.882;2023-05-16T11:19:33;2.50;;;1.00;;
13061;SDS011;6597;52.218;9.882;2023-05-16T11:22:06;4.55;;;1.05;;
13061;SDS011;6597;52.218;9.882;2023-05-16T11:24:34;0.85;;;0.70;;
13061;SDS011;6597;52.218;9.882;2023-05-16T11:27:03;1.58;;;1.00;;
13061;SDS011;6597;52.218;9.882;2023-05-16T11:29:31;2.67;;;1.10;;
13061;SDS011;6597;52.218;9.882;2023-05-16T11:31:58;2.25;;;1.17;;
13061;SDS011;6597;52.218;9.882;2023-05-16T11:34:26;3.50;;;1.35;;
13061;SDS011;6597;52.218;9.882;2023-05-16T11:36:53;6.43;;;1.70;;
13061;SDS011;6597;52.218;9.882;2023-05-16T11:39:21;7.22;;;1.27;;
13061;SDS011;6597;52.218;9.882;2023-05-16T11:41:49;3.38;;;1.17;;
13061;SDS011;6597;52.218;9.882;2023-05-16T11:44:15;4.78;;;1.13;;
13061;SDS011;6597;52.218;9.882;2023-05-16T11:46:42;3.45;;;1.23;;
13061;SDS011;6597;52.218;9.882;2023-05-16T11:49:08;3.15;;;1.05;;
13061;SDS011;6597;52.218;9.882;2023-05-16T11:51:36;3.28;;;1.42;;
13061;SDS011;6597;52.218;9.882;2023-05-16T11:54:03;2.40;;;1.00;;
13061;SDS011;6597;52.218;9.882;2023-05-16T11:56:32;3.35;;;1.15;;
13061;SDS011;6597;52.218;9.882;2023-05-16T11:59:00;3.13;;;1.20;;
13061;SDS011;6597;52.218;9.882;2023-05-16T12:01:30;4.25;;;1.42;;
13061;SDS011;6597;52.218;9.882;2023-05-16T12:03:57;4.88;;;1.20;;
13061;SDS011;6597;52.218;9.882;2023-05-16T12:06:24;4.97;;;1.42;;
13061;SDS011;6597;52.218;9.882;2023-05-16T12:08:51;4.38;;;1.10;;
13061;SDS011;6597;52.218;9.882;2023-05-16T12:11:17;4.45;;;1.05;;
13061;SDS011;6597;52.218;9.882;2023-05-16T12:13:47;5.82;;;1.45;;
13061;SDS011;6597;52.218;9.882;2023-05-16T12:16:14;6.03;;;1.52;;
13061;SDS011;6597;52.218;9.882;2023-05-16T12:18:41;2.00;;;1.20;;
13061;SDS011;6597;52.218;9.882;2023-05-16T12:21:08;2.33;;;1.30;;
13061;SDS011;6597;52.218;9.882;2023-05-16T12:23:35;2.85;;;0.98;;
13061;SDS011;6597;52.218;9.882;2023-05-16T12:26:01;5.18;;;1.50;;
13061;SDS011;6597;52.218;9.882;2023-05-16T12:28:31;3.33;;;1.55;;
13061;SDS011;6597;52.218;9.882;2023-05-16T12:31:00;4.22;;;1.10;;
13061;SDS011;6597;52.218;9.882;2023-05-16T12:33:27;1.80;;;1.15;;
13061;SDS011;6597;52.218;9.882;2023-05-16T12:35:53;3.95;;;1.30;;
13061;SDS011;6597;52.218;9.882;2023-05-16T12:38:20;2.58;;;1.30;;
13061;SDS011;6597;52.218;9.882;2023-05-16T12:40:50;4.18;;;0.80;;
13061;SDS011;6597;52.218;9.882;2023-05-16T12:43:23;1.33;;;0.90;;
13061;SDS011;6597;52.218;9.882;2023-05-16T12:45:50;1.88;;;0.85;;
13061;SDS011;6597;52.218;9.882;2023-05-16T12:48:19;1.58;;;1.00;;
13061;SDS011;6597;52.218;9.882;2023-05-16T12:50:46;3.10;;;1.00;;
13061;SDS011;6597;52.218;9.882;2023-05-16T12:53:13;1.52;;;1.00;;
13061;SDS011;6597;52.218;9.882;2023-05-16T12:55:41;3.58;;;1.20;;
13061;SDS011;6597;52.218;9.882;2023-05-16T12:58:08;2.72;;;1.20;;
13061;SDS011;6597;52.218;9.882;2023-05-16T13:00:36;2.30;;;1.10;;
13061;SDS011;6597;52.218;9.882;2023-05-16T13:03:03;1.10;;;1.00;;
13061;SDS011;6597;52.218;9.882;2023-05-16T13:05:32;2.38;;;0.90;;
13061;SDS011;6597;52.218;9.882;2023-05-16T13:08:00;7.20;;;1.30;;
13061;SDS011;6597;52.218;9.882;2023-05-16T13:10:26;7.55;;;1.20;;
13061;SDS011;6597;52.218;9.882;2023-05-16T13:12:53;6.78;;;1.45;;
13061;SDS011;6597;52.218;9.882;2023-05-16T13:15:22;3.38;;;1.00;;
13061;SDS011;6597;52.218;9.882;2023-05-16T13:17:49;2.50;;;0.98;;
13061;SDS011;6597;52.218;9.882;2023-05-16T13:20:15;2.63;;;1.33;;
13061;SDS011;6597;52.218;9.882;2023-05-16T13:22:43;4.40;;;1.65;;
13061;SDS011;6597;52.218;9.882;2023-05-16T13:25:10;5.10;;;1.20;;
13061;SDS011;6597;52.218;9.882;2023-05-16T13:27:37;2.85;;;1.00;;
13061;SDS011;6597;52.218;9.882;2023-05-16T13:30:04;3.03;;;1.48;;
13061;SDS011;6597;52.218;9.882;2023-05-16T13:32:31;2.43;;;1.30;;
13061;SDS011;6597;52.218;9.882;2023-05-16T13:34:58;2.03;;;1.13;;
13061;SDS011;6597;52.218;9.882;2023-05-16T13:37:24;2.77;;;1.23;;
13061;SDS011;6597;52.218;9.882;2023-05-16T13:39:52;3.17;;;1.13;;
13061;SDS011;6597;52.218;9.882;2023-05-16T13:42:20;2.60;;;1.23;;
13061;SDS011;6597;52.218;9.882;2023-05-16T13:44:46;7.33;;;1.20;;
13061;SDS011;6597;52.218;9.882;2023-05-16T13:47:13;3.43;;;1.40;;
13061;SDS011;6597;52.218;9.882;2023-05-16T13:49:39;8.00;;;1.07;;
13061;SDS011;6597;52.218;9.882;2023-05-16T13:52:06;3.83;;;1.30;;
13061;SDS011;6597;52.218;9.882;2023-05-16T13:54:32;1.97;;;1.17;;
13061;SDS011;6597;52.218;9.882;2023-05-16T13:57:00;11.10;;;1.23;;
13061;SDS011;6597;52.218;9.882;2023-05-16T13:59:27;2.73;;;0.97;;
13061;SDS011;6597;52.218;9.882;2023-05-16T14:01:54;3.33;;;1.17;;
13061;SDS011;6597;52.218;9.882;2023-05-16T14:04:21;2.30;;;1.03;;
13061;SDS011;6597;52.218;9.882;2023-05-16T14:06:47;2.37;;;1.33;;
13061;SDS011;6597;52.218;9.882;2023-05-16T14:09:14;3.43;;;1.57;;
13061;SDS011;6597;52.218;9.882;2023-05-16T14:11:41;1.53;;;0.80;;
13061;SDS011;6597;52.218;9.882;2023-05-16T14:14:08;4.50;;;0.97;;
13061;SDS011;6597;52.218;9.882;2023-05-16T14:16:35;2.08;;;0.95;;
13061;SDS011;6597;52.218;9.882;2023-05-16T14:19:02;1.60;;;1.00;;
13061;SDS011;6597;52.218;9.882;2023-05-16T14:21:28;2.27;;;1.13;;
13061;SDS011;6597;52.218;9.882;2023-05-16T14:23:55;2.63;;;1.20;;
13061;SDS011;6597;52.218;9.882;2023-05-16T14:26:21;3.80;;;1.10;;
13061;SDS011;6597;52.218;9.882;2023-05-16T14:28:49;2.65;;;0.93;;
13061;SDS011;6597;52.218;9.882;2023-05-16T14:31:17;1.63;;;1.05;;
13061;SDS011;6597;52.218;9.882;2023-05-16T14:33:44;1.40;;;1.00;;
13061;SDS011;6597;52.218;9.882;2023-05-16T14:36:10;6.60;;;1.00;;
13061;SDS011;6597;52.218;9.882;2023-05-16T14:38:37;1.60;;;0.87;;
13061;SDS011;6597;52.218;9.882;2023-05-16T14:41:03;1.60;;;0.97;;
13061;SDS011;6597;52.218;9.882;2023-05-16T14:43:30;2.60;;;1.00;;
13061;SDS011;6597;52.218;9.882;2023-05-16T14:45:56;2.63;;;1.03;;
13061;SDS011;6597;52.218;9.882;2023-05-16T14:48:24;2.42;;;0.80;;
13061;SDS011;6597;52.218;9.882;2023-05-16T14:50:51;1.13;;;0.88;;
13061;SDS011;6597;52.218;9.882;2023-05-16T14:53:17;7.27;;;2.00;;
13061;SDS011;6597;52.218;9.882;2023-05-16T14:55:45;4.43;;;0.85;;
13061;SDS011;6597;52.218;9.882;2023-05-16T14:58:12;2.57;;;1.10;;
13061;SDS011;6597;52.218;9.882;2023-05-16T15:00:39;2.70;;;0.93;;
13061;SDS011;6597;52.218;9.882;2023-05-16T15:03:05;1.73;;;0.83;;